Time;durP1;ratioP1;P1;durP2;ratioP2;P2;SDS_P1;SDS_P2;PMS_P1;PMS_P2;Temp;Humidity;BMP_temperature;BMP_pressure;BME280_temperature;BME280_humidity;BME280_pressure;Samples;Min_cycle;Max_cycle;Signal;HPM_P1;HPM_P2
2023/08/11 00:01:21;;;;;;;2.70;1.60;;;;;;;-128.00;-1.00;-1.00;18469;285;7506093;-31
2023/08/11 00:03:47;;;;;;;4.20;2.00;;;;;;;-128.00;-1.00;-1.00;18886;296;7505515;-32
2023/08/11 00:06:16;;;;;;;7.80;2.80;;;;;;;-128.00;-1.00;-1.00;18872;285;7504608;-34
2023/08/11 00:08:42;;;;;;;6.00;2.50;;;;;;;-128.00;-1.00;-1.00;18465;296;7504547;-31
2023/08/11 00:11:08;;;;;;;9.10;5.60;;;;;;;-128.00;-1.00;-1.00;18458;296;7504163;-32
2023/08/11 00:13:34;;;;;;;6.60;4.20;;;;;;;-128.00;-1.00;-1.00;18471;296;7506621;-35
2023/08/11 00:16:03;;;;;;;3.50;2.70;;;;;;;-128.00;-1.00;-1.00;18473;344;7504874;-35
2023/08/11 00:18:29;;;;;;;11.60;4.60;;;;;;;-128.00;-1.00;-1.00;18487;319;7505996;-34
2023/08/11 00:20:55;;;;;;;7.00;4.50;;;;;;;-128.00;-1.00;-1.00;18454;285;7505992;-31
2023/08/11 00:23:21;;;;;;;6.10;3.00;;;;;;;-128.00;-1.00;-1.00;18461;296;7506296;-30
2023/08/11 00:25:47;;;;;;;6.60;4.80;;;;;;;-128.00;-1.00;-1.00;18462;348;7506941;-30
2023/08/11 00:28:13;;;;;;;14.40;7.60;;;;;;;-128.00;-1.00;-1.00;18855;285;7505230;-30
2023/08/11 00:30:39;;;;;;;27.70;15.40;;;;;;;-128.00;-1.00;-1.00;18870;296;7505399;-33
2023/08/11 00:33:05;;;;;;;5.00;2.90;;;;;;;-128.00;-1.00;-1.00;18865;297;7504128;-36
2023/08/11 00:35:31;;;;;;;5.50;2.70;;;;;;;-128.00;-1.00;-1.00;18865;285;7505205;-36
2023/08/11 01:17:43;;;;;;;5.40;4.80;;;;;;;-100.64;19.20;19983.68;19568;284;8045698;-33
2023/08/11 01:20:15;;;;;;;7.10;5.00;;;;;;;-128.00;-1.00;-1.00;18605;298;7504517;-29
2023/08/11 01:22:46;;;;;;;3.00;2.70;;;;;;;-128.00;-1.00;-1.00;18483;337;7506056;-34
2023/08/11 01:25:12;;;;;;;4.30;3.30;;;;;;;-128.00;-1.00;-1.00;18464;348;7504704;-34
2023/08/11 01:27:57;;;;;;;4.60;3.60;;;;;;;-128.00;-1.00;-1.00;18451;321;7506157;-30
2023/08/11 01:30:23;;;;;;;5.60;3.40;;;;;;;-128.00;-1.00;-1.00;18502;348;7505773;-34
2023/08/11 01:32:50;;;;;;;6.30;4.10;;;;;;;-128.00;-1.00;-1.00;18488;296;7504409;-31
2023/08/11 01:35:15;;;;;;;6.20;4.60;;;;;;;-128.00;-1.00;-1.00;18457;296;7505988;-34
2023/08/11 01:37:43;;;;;;;4.30;3.50;;;;;;;-128.00;-1.00;-1.00;18465;296;7504540;-29
2023/08/11 01:40:14;;;;;;;4.40;2.80;;;;;;;-128.00;-1.00;-1.00;18467;296;7504400;-30
2023/08/11 01:42:42;;;;;;;2.40;2.10;;;;;;;-128.00;-1.00;-1.00;18482;288;7504493;-30
2023/08/11 01:45:08;;;;;;;9.50;2.50;;;;;;;-128.00;-1.00;-1.00;18463;288;7506083;-33
2023/08/11 01:47:35;;;;;;;6.80;3.10;;;;;;;-128.00;-1.00;-1.00;18458;307;7505042;-34
2023/08/11 01:50:00;;;;;;;6.70;4.20;;;;;;;-128.00;-1.00;-1.00;18508;296;7504502;-34
2023/08/11 01:52:26;;;;;;;8.10;2.80;;;;;;;-128.00;-1.00;-1.00;18879;300;7504713;-34
2023/08/11 01:54:53;;;;;;;5.00;3.40;;;;;;;-128.00;-1.00;-1.00;18844;297;7504559;-30
2023/08/11 01:57:19;;;;;;;3.70;2.50;;;;;;;-128.00;-1.00;-1.00;18448;296;7504541;-34
2023/08/11 01:59:45;;;;;;;2.30;1.50;;;;;;;-128.00;-1.00;-1.00;18878;288;7505326;-34
2023/08/11 02:02:11;;;;;;;2.30;1.30;;;;;;;-128.00;-1.00;-1.00;18873;288;7504794;-31
2023/08/11 02:04:38;;;;;;;3.30;1.80;;;;;;;-128.00;-1.00;-1.00;18870;296;7505645;-31
2023/08/11 02:07:04;;;;;;;2.90;1.90;;;;;;;-128.00;-1.00;-1.00;18478;296;7506135;-32
2023/08/11 02:09:31;;;;;;;2.10;1.20;;;;;;;-128.00;-1.00;-1.00;18457;296;7506301;-31
2023/08/11 02:11:57;;;;;;;4.40;2.50;;;;;;;-128.00;-1.00;-1.00;18487;296;7506401;-36
2023/08/11 02:14:22;;;;;;;3.00;1.60;;;;;;;-128.00;-1.00;-1.00;18476;296;7505814;-36
2023/08/11 02:16:48;;;;;;;3.70;1.90;;;;;;;-128.00;-1.00;-1.00;18449;296;7504912;-31
2023/08/11 02:19:15;;;;;;;3.30;2.10;;;;;;;-128.00;-1.00;-1.00;18483;304;7504794;-35
2023/08/11 02:21:42;;;;;;;3.90;2.40;;;;;;;-128.00;-1.00;-1.00;18486;285;7506505;-30
2023/08/11 02:24:07;;;;;;;5.10;2.70;;;;;;;-128.00;-1.00;-1.00;18474;285;7504535;-30
2023/08/11 02:26:33;;;;;;;4.80;3.00;;;;;;;-128.00;-1.00;-1.00;18483;296;7504932;-35
2023/08/11 02:28:59;;;;;;;3.10;2.20;;;;;;;-128.00;-1.00;-1.00;18462;289;7506538;-36
2023/08/11 02:31:28;;;;;;;3.00;2.70;;;;;;;-128.00;-1.00;-1.00;18474;306;7504539;-36
2023/08/11 02:33:54;;;;;;;4.60;2.50;;;;;;;-128.00;-1.00;-1.00;18456;296;7504644;-36
2023/08/11 02:36:20;;;;;;;9.10;2.70;;;;;;;-128.00;-1.00;-1.00;18480;296;7506010;-36
2023/08/11 02:38:45;;;;;;;9.40;4.70;;;;;;;-128.00;-1.00;-1.00;18495;289;7504568;-31
2023/08/11 02:41:11;;;;;;;10.80;7.20;;;;;;;-128.00;-1.00;-1.00;18476;296;7506429;-36
2023/08/11 02:43:38;;;;;;;8.00;2.90;;;;;;;-128.00;-1.00;-1.00;18464;297;7504898;-35
2023/08/11 02:46:05;;;;;;;7.10;5.00;;;;;;;-128.00;-1.00;-1.00;18903;348;7505211;-36
2023/08/11 02:48:33;;;;;;;4.90;3.10;;;;;;;-128.00;-1.00;-1.00;18453;296;7505546;-35
2023/08/11 02:51:02;;;;;;;6.80;1.70;;;;;;;-128.00;-1.00;-1.00;18471;289;7506042;-32
2023/08/11 02:53:28;;;;;;;2.20;1.90;;;;;;;-128.00;-1.00;-1.00;18480;296;7504834;-32
2023/08/11 02:55:54;;;;;;;3.70;2.80;;;;;;;-128.00;-1.00;-1.00;18461;289;7505014;-32
2023/08/11 02:58:19;;;;;;;4.20;3.40;;;;;;;-128.00;-1.00;-1.00;18463;296;7505568;-36
2023/08/11 03:00:46;;;;;;;4.30;2.80;;;;;;;-128.00;-1.00;-1.00;18466;316;7505065;-35
2023/08/11 03:03:13;;;;;;;3.80;3.30;;;;;;;-128.00;-1.00;-1.00;18487;302;7504718;-31
2023/08/11 03:05:38;;;;;;;3.20;2.00;;;;;;;-128.00;-1.00;-1.00;18461;296;7505013;-35
2023/08/11 03:08:04;;;;;;;5.40;2.40;;;;;;;-128.00;-1.00;-1.00;18471;296;7504612;-31
2023/08/11 03:10:30;;;;;;;4.00;2.80;;;;;;;-128.00;-1.00;-1.00;18469;297;7504375;-32
2023/08/11 03:12:56;;;;;;;8.30;4.20;;;;;;;-128.00;-1.00;-1.00;18493;285;7506014;-35
2023/08/11 03:15:23;;;;;;;15.00;4.50;;;;;;;-128.00;-1.00;-1.00;18868;296;7505758;-30
2023/08/11 03:17:49;;;;;;;8.60;3.10;;;;;;;-128.00;-1.00;-1.00;18476;296;7505002;-30
2023/08/11 03:20:15;;;;;;;3.70;2.30;;;;;;;-128.00;-1.00;-1.00;18485;296;7506292;-30
2023/08/11 03:22:42;;;;;;;4.50;3.50;;;;;;;-128.00;-1.00;-1.00;18482;285;7504591;-35
2023/08/11 03:25:08;;;;;;;4.00;3.30;;;;;;;-128.00;-1.00;-1.00;18488;289;7505983;-34
2023/08/11 03:27:34;;;;;;;10.40;3.30;;;;;;;-128.00;-1.00;-1.00;18472;298;7504782;-31
2023/08/11 03:30:00;;;;;;;2.90;2.60;;;;;;;-128.00;-1.00;-1.00;18467;296;7504275;-30
2023/08/11 03:32:25;;;;;;;2.10;1.30;;;;;;;-128.00;-1.00;-1.00;18455;289;7506339;-35
2023/08/11 03:34:51;;;;;;;1.70;1.10;;;;;;;-128.00;-1.00;-1.00;18463;288;7506356;-36
2023/08/11 03:37:17;;;;;;;3.40;1.80;;;;;;;-128.00;-1.00;-1.00;18508;296;7506213;-31
2023/08/11 03:39:43;;;;;;;6.20;3.80;;;;;;;-128.00;-1.00;-1.00;18875;349;7504892;-36
2023/08/11 03:42:09;;;;;;;2.70;2.50;;;;;;;-128.00;-1.00;-1.00;18457;296;7504464;-31
2023/08/11 03:44:38;;;;;;;8.30;2.80;;;;;;;-128.00;-1.00;-1.00;18490;296;7505712;-31
2023/08/11 03:47:05;;;;;;;6.10;1.90;;;;;;;-128.00;-1.00;-1.00;18485;285;7506289;-32
2023/08/11 03:49:31;;;;;;;3.80;2.40;;;;;;;-128.00;-1.00;-1.00;18470;348;7504971;-31
2023/08/11 03:51:57;;;;;;;4.80;3.30;;;;;;;-128.00;-1.00;-1.00;18453;285;7506990;-35
2023/08/11 03:54:23;;;;;;;3.80;3.10;;;;;;;-128.00;-1.00;-1.00;18471;296;7504374;-31
2023/08/11 03:56:48;;;;;;;3.70;2.60;;;;;;;-128.00;-1.00;-1.00;18476;348;7505475;-30
2023/08/11 03:59:14;;;;;;;5.10;3.80;;;;;;;-128.00;-1.00;-1.00;18877;296;7504580;-34
2023/08/11 04:01:41;;;;;;;5.20;3.80;;;;;;;-128.00;-1.00;-1.00;18876;296;7504529;-31
2023/08/11 04:04:07;;;;;;;6.40;3.50;;;;;;;-128.00;-1.00;-1.00;18878;288;7504773;-36
2023/08/11 04:06:33;;;;;;;4.90;3.30;;;;;;;-128.00;-1.00;-1.00;18878;289;7505203;-32
2023/08/11 04:09:00;;;;;;;5.90;3.10;;;;;;;-128.00;-1.00;-1.00;18459;296;7505944;-36
2023/08/11 04:11:27;;;;;;;4.10;2.60;;;;;;;-128.00;-1.00;-1.00;18448;338;7505198;-36
2023/08/11 04:13:52;;;;;;;3.20;2.40;;;;;;;-128.00;-1.00;-1.00;18502;289;7506319;-36
2023/08/11 04:16:18;;;;;;;6.70;2.70;;;;;;;-128.00;-1.00;-1.00;18469;296;7506159;-36
2023/08/11 04:18:44;;;;;;;3.40;3.10;;;;;;;-128.00;-1.00;-1.00;18462;296;7504572;-31
2023/08/11 04:21:10;;;;;;;4.80;3.00;;;;;;;-128.00;-1.00;-1.00;18478;288;7504496;-36
2023/08/11 04:23:35;;;;;;;3.50;2.60;;;;;;;-128.00;-1.00;-1.00;18453;296;7505162;-36
2023/08/11 04:26:01;;;;;;;5.20;2.20;;;;;;;-128.00;-1.00;-1.00;18479;288;7504604;-36
2023/08/11 04:28:27;;;;;;;4.10;3.70;;;;;;;-128.00;-1.00;-1.00;18476;296;7504568;-31
2023/08/11 04:30:53;;;;;;;9.30;4.20;;;;;;;-128.00;-1.00;-1.00;18908;336;7505081;-32
2023/08/11 04:33:20;;;;;;;5.10;2.20;;;;;;;-128.00;-1.00;-1.00;18864;296;7504850;-33
2023/08/11 04:35:48;;;;;;;4.80;2.50;;;;;;;-128.00;-1.00;-1.00;18483;285;7504542;-36
2023/08/11 04:38:13;;;;;;;5.70;4.00;;;;;;;-128.00;-1.00;-1.00;18467;296;7504298;-32
2023/08/11 04:40:39;;;;;;;4.80;3.90;;;;;;;-128.00;-1.00;-1.00;18462;285;7504058;-35
2023/08/11 04:43:05;;;;;;;8.70;4.60;;;;;;;-128.00;-1.00;-1.00;18875;285;7504378;-36
2023/08/11 04:45:32;;;;;;;6.30;5.10;;;;;;;-128.00;-1.00;-1.00;18483;296;7504933;-32
2023/08/11 04:47:59;;;;;;;7.10;4.10;;;;;;;-128.00;-1.00;-1.00;18857;289;7504681;-32
2023/08/11 04:50:25;;;;;;;4.20;3.40;;;;;;;-128.00;-1.00;-1.00;18462;296;7506518;-37
2023/08/11 04:52:51;;;;;;;6.50;4.70;;;;;;;-128.00;-1.00;-1.00;18464;349;7504792;-31
2023/08/11 04:55:17;;;;;;;7.10;4.40;;;;;;;-128.00;-1.00;-1.00;18876;296;7505001;-35
2023/08/11 04:57:43;;;;;;;5.80;4.40;;;;;;;-128.00;-1.00;-1.00;18875;285;7504448;-31
2023/08/11 05:00:14;;;;;;;9.40;5.10;;;;;;;-128.00;-1.00;-1.00;18851;304;7504756;-35
2023/08/11 05:02:41;;;;;;;5.50;2.60;;;;;;;-128.00;-1.00;-1.00;18467;297;7504851;-35
2023/08/11 05:05:08;;;;;;;5.10;3.40;;;;;;;-128.00;-1.00;-1.00;18440;298;7504931;-31
2023/08/11 05:07:34;;;;;;;5.60;2.90;;;;;;;-128.00;-1.00;-1.00;18440;308;7504866;-35
2023/08/11 05:09:59;;;;;;;5.20;3.90;;;;;;;-128.00;-1.00;-1.00;18467;348;7504606;-35
2023/08/11 05:12:25;;;;;;;6.80;3.90;;;;;;;-128.00;-1.00;-1.00;18880;285;7504690;-35
2023/08/11 05:14:52;;;;;;;6.30;3.80;;;;;;;-128.00;-1.00;-1.00;18854;296;7505021;-35
2023/08/11 05:17:18;;;;;;;4.40;2.30;;;;;;;-128.00;-1.00;-1.00;18471;297;7504787;-37
2023/08/11 05:19:43;;;;;;;3.10;2.60;;;;;;;-128.00;-1.00;-1.00;18487;297;7504455;-37
2023/08/11 05:22:10;;;;;;;6.40;3.50;;;;;;;-128.00;-1.00;-1.00;18899;296;7504507;-33
2023/08/11 05:24:36;;;;;;;5.20;2.80;;;;;;;-128.00;-1.00;-1.00;18864;318;7504130;-31
2023/08/11 05:27:03;;;;;;;6.40;3.00;;;;;;;-128.00;-1.00;-1.00;18860;296;7504786;-35
2023/08/11 05:29:28;;;;;;;4.10;2.60;;;;;;;-128.00;-1.00;-1.00;18499;296;7505027;-35
2023/08/11 05:31:55;;;;;;;6.70;3.40;;;;;;;-128.00;-1.00;-1.00;18873;349;7504636;-35
2023/08/11 05:34:22;;;;;;;6.60;4.20;;;;;;;-128.00;-1.00;-1.00;18869;285;7504889;-34
2023/08/11 05:36:48;;;;;;;10.00;4.30;;;;;;;-128.00;-1.00;-1.00;18479;349;7504369;-31
2023/08/11 05:39:13;;;;;;;10.10;3.00;;;;;;;-128.00;-1.00;-1.00;18495;336;7505231;-32
2023/08/11 05:41:40;;;;;;;4.50;3.40;;;;;;;-128.00;-1.00;-1.00;18480;348;7504314;-32
2023/08/11 05:44:06;;;;;;;3.70;2.00;;;;;;;-128.00;-1.00;-1.00;18455;297;7506184;-33
2023/08/11 05:46:32;;;;;;;5.30;3.70;;;;;;;-128.00;-1.00;-1.00;18476;296;7506106;-36
2023/08/11 05:48:58;;;;;;;11.20;3.00;;;;;;;-128.00;-1.00;-1.00;18440;296;7504721;-36
2023/08/11 05:51:24;;;;;;;4.60;3.50;;;;;;;-128.00;-1.00;-1.00;18859;289;7504616;-32
2023/08/11 05:53:50;;;;;;;6.50;2.50;;;;;;;-128.00;-1.00;-1.00;18868;297;7504365;-36
2023/08/11 05:56:16;;;;;;;4.60;2.90;;;;;;;-128.00;-1.00;-1.00;18879;285;7504924;-35
2023/08/11 05:58:43;;;;;;;3.00;2.00;;;;;;;-128.00;-1.00;-1.00;18888;289;7507130;-35
2023/08/11 06:01:09;;;;;;;6.00;2.80;;;;;;;-128.00;-1.00;-1.00;18869;285;7504323;-32
2023/08/11 06:03:35;;;;;;;7.30;2.80;;;;;;;-128.00;-1.00;-1.00;18859;296;7504637;-33
2023/08/11 06:06:02;;;;;;;5.00;2.50;;;;;;;-128.00;-1.00;-1.00;18871;289;7504170;-32
2023/08/11 06:08:28;;;;;;;4.40;1.80;;;;;;;-128.00;-1.00;-1.00;18478;296;7506728;-36
2023/08/11 06:10:55;;;;;;;12.60;2.70;;;;;;;-128.00;-1.00;-1.00;18451;296;7506381;-33
2023/08/11 06:13:22;;;;;;;8.90;2.20;;;;;;;-128.00;-1.00;-1.00;18482;349;7504585;-36
2023/08/11 06:15:49;;;;;;;3.10;2.40;;;;;;;-128.00;-1.00;-1.00;18492;296;7504711;-33
2023/08/11 06:18:14;;;;;;;5.20;1.60;;;;;;;-128.00;-1.00;-1.00;18460;296;7506036;-35
2023/08/11 06:20:40;;;;;;;2.70;1.50;;;;;;;-128.00;-1.00;-1.00;18472;285;7504540;-35
2023/08/11 06:23:07;;;;;;;4.00;1.60;;;;;;;-128.00;-1.00;-1.00;18851;289;7504566;-31
2023/08/11 06:25:32;;;;;;;8.20;2.20;;;;;;;-128.00;-1.00;-1.00;18499;296;7505854;-31
2023/08/11 06:27:59;;;;;;;7.30;2.30;;;;;;;-128.00;-1.00;-1.00;18885;336;7504466;-36
2023/08/11 06:30:28;;;;;;;6.50;2.30;;;;;;;-128.00;-1.00;-1.00;18829;298;7504488;-36
2023/08/11 06:32:54;;;;;;;3.60;1.90;;;;;;;-128.00;-1.00;-1.00;18513;348;7506011;-36
2023/08/11 06:35:19;;;;;;;9.30;2.60;;;;;;;-128.00;-1.00;-1.00;18472;296;7506285;-36
2023/08/11 06:37:45;;;;;;;3.50;2.10;;;;;;;-128.00;-1.00;-1.00;18479;296;7504392;-32
2023/08/11 06:40:11;;;;;;;2.40;1.80;;;;;;;-128.00;-1.00;-1.00;18443;319;7504906;-36
2023/08/11 06:42:38;;;;;;;2.70;1.90;;;;;;;-128.00;-1.00;-1.00;18472;342;7505703;-36
2023/08/11 06:45:04;;;;;;;2.70;1.10;;;;;;;-128.00;-1.00;-1.00;18472;301;7506026;-32
2023/08/11 06:47:31;;;;;;;3.80;1.30;;;;;;;-128.00;-1.00;-1.00;18485;296;7504580;-36
2023/08/11 06:49:57;;;;;;;3.30;1.50;;;;;;;-128.00;-1.00;-1.00;18487;296;7504929;-32
2023/08/11 06:52:23;;;;;;;2.60;1.50;;;;;;;-128.00;-1.00;-1.00;18501;289;7505882;-33
2023/08/11 06:54:49;;;;;;;0.60;0.50;;;;;;;-128.00;-1.00;-1.00;18464;296;7506211;-32
2023/08/11 06:57:18;;;;;;;1.50;1.00;;;;;;;-128.00;-1.00;-1.00;18890;285;7505077;-36
2023/08/11 06:59:43;;;;;;;2.40;0.90;;;;;;;-128.00;-1.00;-1.00;18485;288;7504922;-36
2023/08/11 07:02:09;;;;;;;3.00;1.00;;;;;;;-128.00;-1.00;-1.00;18862;296;7505198;-36
2023/08/11 07:04:35;;;;;;;2.10;1.20;;;;;;;-128.00;-1.00;-1.00;18859;289;7504501;-36
2023/08/11 07:07:02;;;;;;;3.60;1.80;;;;;;;-128.00;-1.00;-1.00;18878;309;7505048;-32
2023/08/11 07:09:28;;;;;;;2.40;1.20;;;;;;;-128.00;-1.00;-1.00;18876;289;7504264;-32
2023/08/11 07:11:54;;;;;;;2.10;0.70;;;;;;;-128.00;-1.00;-1.00;18857;302;7504792;-35
2023/08/11 07:14:20;;;;;;;2.90;1.10;;;;;;;-128.00;-1.00;-1.00;18870;298;7504582;-35
2023/08/11 07:16:47;;;;;;;1.40;1.00;;;;;;;-128.00;-1.00;-1.00;18862;297;7504300;-36
2023/08/11 07:19:13;;;;;;;3.30;1.50;;;;;;;-128.00;-1.00;-1.00;18495;285;7504470;-32
2023/08/11 07:21:39;;;;;;;1.50;1.10;;;;;;;-128.00;-1.00;-1.00;18883;349;7504451;-35
2023/08/11 07:24:06;;;;;;;2.50;1.10;;;;;;;-128.00;-1.00;-1.00;18885;296;7505356;-35
2023/08/11 07:26:31;;;;;;;1.30;1.00;;;;;;;-128.00;-1.00;-1.00;18464;296;7504817;-31
2023/08/11 07:28:57;;;;;;;2.70;1.10;;;;;;;-128.00;-1.00;-1.00;18885;296;7504863;-31
2023/08/11 07:31:24;;;;;;;3.10;0.90;;;;;;;-128.00;-1.00;-1.00;18865;348;7504588;-32
2023/08/11 07:33:50;;;;;;;2.20;1.10;;;;;;;-128.00;-1.00;-1.00;18879;296;7504353;-34
2023/08/11 07:36:16;;;;;;;9.80;1.20;;;;;;;-128.00;-1.00;-1.00;18864;296;7504190;-32
2023/08/11 07:38:42;;;;;;;2.00;1.10;;;;;;;-128.00;-1.00;-1.00;18852;296;7504596;-35
2023/08/11 07:41:08;;;;;;;2.00;0.90;;;;;;;-128.00;-1.00;-1.00;18896;288;7505084;-35
2023/08/11 07:43:34;;;;;;;2.20;1.10;;;;;;;-128.00;-1.00;-1.00;18861;296;7505741;-35
2023/08/11 07:46:01;;;;;;;2.60;0.80;;;;;;;-128.00;-1.00;-1.00;18911;285;7504606;-35
2023/08/11 07:48:27;;;;;;;0.90;0.80;;;;;;;-128.00;-1.00;-1.00;18861;288;7505242;-36
2023/08/11 07:50:53;;;;;;;5.70;1.00;;;;;;;-128.00;-1.00;-1.00;18890;285;7504618;-32
2023/08/11 07:53:19;;;;;;;0.90;0.70;;;;;;;-128.00;-1.00;-1.00;18877;296;7504266;-34
2023/08/11 07:55:45;;;;;;;1.70;0.80;;;;;;;-128.00;-1.00;-1.00;18886;289;7504612;-31
2023/08/11 07:58:12;;;;;;;2.00;0.90;;;;;;;-128.00;-1.00;-1.00;18884;285;7504764;-34
2023/08/11 08:00:38;;;;;;;2.00;0.90;;;;;;;-128.00;-1.00;-1.00;18874;297;7505165;-32
2023/08/11 08:03:04;;;;;;;2.90;1.00;;;;;;;-128.00;-1.00;-1.00;18885;288;7504625;-36
2023/08/11 08:05:31;;;;;;;2.10;1.10;;;;;;;-128.00;-1.00;-1.00;18849;349;7505427;-36
2023/08/11 08:07:57;;;;;;;5.70;0.70;;;;;;;-128.00;-1.00;-1.00;18464;296;7504314;-36
2023/08/11 08:10:25;;;;;;;1.20;0.70;;;;;;;-128.00;-1.00;-1.00;18457;296;7505272;-36
2023/08/11 08:12:50;;;;;;;1.40;0.50;;;;;;;-128.00;-1.00;-1.00;18473;285;7504713;-32
2023/08/11 08:15:16;;;;;;;1.70;0.50;;;;;;;-128.00;-1.00;-1.00;18493;288;7506281;-36
2023/08/11 08:23:55;;;;;;;0.70;0.40;;;;;;;;;;101020;300;544167;-31
2023/08/11 08:26:20;;;;;;;0.90;0.70;;;;;;;;;;101196;302;22583;-31
2023/08/11 08:28:46;;;;;;;1.50;0.60;;;;;;;;;;101172;302;22642;-31
2023/08/11 08:31:11;;;;;;;0.90;0.50;;;;;;;;;;100918;302;23092;-35
2023/08/11 08:33:37;;;;;;;0.80;0.50;;;;;;;;;;101053;302;22810;-35
2023/08/11 08:36:02;;;;;;;1.50;0.50;;;;;;;;;;101179;300;22665;-32
2023/08/11 08:38:28;;;;;;;1.40;0.40;;;;;;;;;;100822;298;674061;-37
2023/08/11 08:40:53;;;;;;;1.40;0.60;;;;;;;;;;101349;298;22679;-31
2023/08/11 08:43:19;;;;;;;1.30;0.70;;;;;;;;;;101275;298;24212;-34
2023/08/11 08:45:45;;;;;;;0.70;0.50;;;;;;;;;;101236;299;24261;-31
2023/08/11 08:48:14;;;;;;;1.30;0.50;;;;;;;;;;101242;288;24149;-35
2023/08/11 08:50:41;;;;;;;1.00;0.50;;;;;;;;;;101294;298;22671;-35
2023/08/11 08:53:07;;;;;;;2.30;0.70;;;;;;;;;;101177;288;22813;-35
2023/08/11 08:55:33;;;;;;;0.60;0.40;;;;;;;;;;101454;298;25152;-33
2023/08/11 08:57:59;;;;;;;1.20;0.50;;;;;;;;;;101287;298;22604;-37
2023/08/11 09:00:25;;;;;;;0.80;0.50;;;;;;;;;;101193;298;24183;-36
2023/08/11 09:02:51;;;;;;;1.00;0.60;;;;;;;;;;101311;298;24078;-33
2023/08/11 09:05:16;;;;;;;1.10;0.50;;;;;;;;;;101339;298;22887;-36
2023/08/11 09:07:42;;;;;;;0.90;0.50;;;;;;;;;;101059;299;22649;-35
2023/08/11 09:10:08;;;;;;;0.60;0.50;;;;;;;;;;101166;298;22599;-35
2023/08/11 09:12:33;;;;;;;1.40;0.60;;;;;;;;;;101182;299;22542;-36
2023/08/11 09:15:05;;;;;;;0.60;0.40;;;;;;;;;;101262;298;22892;-36
2023/08/11 09:17:30;;;;;;;1.70;0.50;;;;;;;;;;101275;298;23036;-32
2023/08/11 09:19:56;;;;;;;0.40;0.40;;;;;;;;;;101334;298;24245;-36
2023/08/11 09:22:24;;;;;;;0.50;0.30;;;;;;;;;;101191;299;24740;-32
2023/08/11 09:24:50;;;;;;;1.90;1.00;;;;;;;;;;101300;298;22886;-32
2023/08/11 09:27:15;;;;;;;2.70;0.70;;;;;;;;;;101273;299;22668;-35
2023/08/11 09:29:41;;;;;;;1.50;0.40;;;;;;;;;;101260;299;22729;-36
2023/08/11 09:32:06;;;;;;;2.00;0.70;;;;;;;;;;101284;298;22815;-35
2023/08/11 09:34:32;;;;;;;1.00;0.60;;;;;;;;;;101317;299;22585;-31
2023/08/11 09:36:57;;;;;;;0.70;0.40;;;;;;;;;;101277;288;22905;-35
2023/08/11 09:39:23;;;;;;;1.30;0.60;;;;;;;;;;101318;288;22580;-35
2023/08/11 09:41:49;;;;;;;1.40;0.80;;;;;;;;;;101242;299;22729;-31
2023/08/11 09:44:15;;;;;;;0.90;0.60;;;;;;;;;;101210;288;22690;-32
2023/08/11 09:46:42;;;;;;;0.60;0.40;;;;;;;;;;101220;288;22588;-35
2023/08/11 09:49:07;;;;;;;1.60;0.80;;;;;;;;;;101319;288;22681;-32
2023/08/11 09:51:34;;;;;;;0.80;0.40;;;;;;;;;;101422;299;22577;-31
2023/08/11 09:54:05;;;;;;;1.60;0.60;;;;;;;;;;101264;288;24197;-39
2023/08/11 09:56:35;;;;;;;1.10;0.50;;;;;;;;;;101315;288;22889;-36
2023/08/11 09:59:05;;;;;;;0.90;0.30;;;;;;;;;;101257;287;22579;-31
2023/08/11 10:01:31;;;;;;;1.00;0.40;;;;;;;;;;101388;299;25450;-32
2023/08/11 10:03:57;;;;;;;0.90;0.80;;;;;;;;;;101322;299;24362;-35
2023/08/11 10:06:24;;;;;;;0.80;0.30;;;;;;;;;;101330;299;22881;-35
2023/08/11 10:08:49;;;;;;;0.60;0.50;;;;;;;;;;101334;288;22888;-35
2023/08/11 10:11:15;;;;;;;0.80;0.50;;;;;;;;;;101219;288;22812;-32
2023/08/11 10:13:41;;;;;;;0.90;0.50;;;;;;;;;;101345;288;22888;-31
2023/08/11 10:16:06;;;;;;;0.80;0.60;;;;;;;;;;101374;288;22704;-35
2023/08/11 10:18:32;;;;;;;0.90;0.40;;;;;;;;;;101200;288;22663;-35
2023/08/11 10:20:58;;;;;;;1.60;0.30;;;;;;;;;;101227;288;22994;-31
2023/08/11 10:23:23;;;;;;;0.90;0.40;;;;;;;;;;101475;288;22602;-35
2023/08/11 10:25:49;;;;;;;0.60;0.40;;;;;;;;;;101281;288;23068;-35
2023/08/11 10:28:15;;;;;;;0.80;0.50;;;;;;;;;;101145;287;24118;-35
2023/08/11 10:30:40;;;;;;;3.30;0.60;;;;;;;;;;101248;299;24264;-31
2023/08/11 10:33:09;;;;;;;0.80;0.60;;;;;;;;;;101247;299;24117;-31
2023/08/11 10:35:49;;;;;;;5.00;0.70;;;;;;;;;;101393;288;22582;-31
2023/08/11 10:38:27;;;;;;;1.30;0.50;;;;;;;;;;101327;299;23010;-31
2023/08/11 10:41:00;;;;;;;0.90;0.50;;;;;;;;;;101404;298;22579;-32
2023/08/11 10:43:27;;;;;;;1.30;0.80;;;;;;;;;;101421;298;22805;-39
2023/08/11 10:45:53;;;;;;;1.20;0.50;;;;;;;;;;101387;298;24153;-32
2023/08/11 10:48:20;;;;;;;2.10;0.80;;;;;;;;;;101412;286;22681;-31
2023/08/11 10:50:45;;;;;;;1.40;0.60;;;;;;;;;;101194;288;23385;-35
2023/08/11 10:53:20;;;;;;;2.80;0.50;;;;;;;;;;101279;298;22885;-37
2023/08/11 10:55:57;;;;;;;1.40;0.70;;;;;;;;;;101389;298;22618;-35
2023/08/11 10:58:23;;;;;;;0.70;0.50;;;;;;;;;;101370;298;22674;-35
2023/08/11 11:00:48;;;;;;;0.80;0.70;;;;;;;;;;101435;298;22731;-31
2023/08/11 11:03:14;;;;;;;0.90;0.60;;;;;;;;;;101377;298;24151;-32
2023/08/11 11:05:40;;;;;;;0.70;0.50;;;;;;;;;;101406;288;22574;-35
2023/08/11 11:08:06;;;;;;;1.40;0.70;;;;;;;;;;101337;298;24270;-38
2023/08/11 11:10:32;;;;;;;1.30;0.60;;;;;;;;;;101289;298;22580;-31
2023/08/11 11:12:57;;;;;;;0.70;0.40;;;;;;;;;;101236;288;22578;-31
2023/08/11 11:15:22;;;;;;;0.80;0.50;;;;;;;;;;101440;298;22579;-35
2023/08/11 11:17:49;;;;;;;0.80;0.60;;;;;;;;;;101256;286;24245;-35
2023/08/11 11:20:14;;;;;;;0.50;0.30;;;;;;;;;;101344;288;22906;-36
2023/08/11 11:22:46;;;;;;;1.40;0.70;;;;;;;;;;101450;298;22906;-32
2023/08/11 11:25:12;;;;;;;4.20;0.70;;;;;;;;;;101397;297;24162;-35
2023/08/11 11:27:42;;;;;;;1.60;0.80;;;;;;;;;;101348;297;24247;-31
2023/08/11 11:30:08;;;;;;;1.30;0.60;;;;;;;;;;101441;297;22902;-31
2023/08/11 11:32:33;;;;;;;1.60;0.80;;;;;;;;;;101362;297;22581;-40
2023/08/11 11:34:59;;;;;;;4.00;0.90;;;;;;;;;;101460;297;22895;-32
2023/08/11 11:37:25;;;;;;;1.50;0.60;;;;;;;;;;101245;297;22879;-32
2023/08/11 11:39:50;;;;;;;3.40;0.70;;;;;;;;;;101364;297;23124;-32
2023/08/11 11:42:16;;;;;;;1.30;0.50;;;;;;;;;;101409;297;22727;-36
2023/08/11 11:44:41;;;;;;;1.40;0.50;;;;;;;;;;101369;297;23036;-36
2023/08/11 11:47:07;;;;;;;0.80;0.50;;;;;;;;;;101326;297;22573;-31
2023/08/11 11:49:32;;;;;;;1.50;0.70;;;;;;;;;;101284;297;24180;-31
2023/08/11 11:52:01;;;;;;;5.00;0.70;;;;;;;;;;101280;297;23014;-32
2023/08/11 11:54:27;;;;;;;3.20;0.60;;;;;;;;;;101496;298;22580;-36
2023/08/11 11:56:52;;;;;;;2.30;0.90;;;;;;;;;;101406;298;22597;-36
2023/08/11 11:59:18;;;;;;;0.80;0.70;;;;;;;;;;101362;298;22580;-42
2023/08/11 12:01:44;;;;;;;1.10;0.60;;;;;;;;;;101310;298;24075;-36
2023/08/11 12:04:10;;;;;;;0.60;0.50;;;;;;;;;;101346;297;22607;-37
2023/08/11 12:06:36;;;;;;;0.40;0.40;;;;;;;;;;101441;297;24181;-34
2023/08/11 12:09:08;;;;;;;1.60;0.60;;;;;;;;;;101391;298;22611;-33
2023/08/11 12:11:34;;;;;;;0.60;0.50;;;;;;;;;;101404;298;24171;-36
2023/08/11 12:13:59;;;;;;;1.20;0.40;;;;;;;;;;101332;298;24101;-36
2023/08/11 12:16:26;;;;;;;1.00;0.60;;;;;;;;;;101359;298;22889;-33
2023/08/11 12:18:51;;;;;;;2.10;0.50;;;;;;;;;;101464;298;22810;-36
2023/08/11 12:21:17;;;;;;;0.80;0.60;;;;;;;;;;101373;298;22666;-32
2023/08/11 12:23:43;;;;;;;0.60;0.40;;;;;;;;;;101248;298;22576;-38
2023/08/11 12:26:09;;;;;;;0.70;0.50;;;;;;;;;;101489;298;22676;-36
2023/08/11 12:28:35;;;;;;;1.90;0.90;;;;;;;;;;101332;298;22988;-35
2023/08/11 12:31:02;;;;;;;0.60;0.30;;;;;;;;;;101545;298;22915;-31
2023/08/11 12:33:28;;;;;;;2.50;0.60;;;;;;;;;;101282;298;22588;-36
2023/08/11 13:15:26;;;;;;;1.50;0.30;;;;;;;-96.67;4.78;19993.61;19557;299;8044403;-35
2023/08/11 13:17:53;;;;;;;0.80;0.50;;;;;;;-128.00;-1.00;-1.00;18519;295;7505775;-31
2023/08/11 13:20:19;;;;;;;0.60;0.30;;;;;;;-128.00;-1.00;-1.00;18492;330;7505790;-31
2023/08/11 13:22:45;;;;;;;1.00;0.70;;;;;;;-128.00;-1.00;-1.00;18890;346;7505680;-35
2023/08/11 13:25:11;;;;;;;1.00;0.60;;;;;;;-128.00;-1.00;-1.00;18893;299;7505439;-35
2023/08/11 13:27:38;;;;;;;6.30;0.60;;;;;;;-128.00;-1.00;-1.00;18870;294;7504830;-33
2023/08/11 13:30:07;;;;;;;0.90;0.60;;;;;;;-128.00;-1.00;-1.00;18853;294;7504701;-35
2023/08/11 13:32:33;;;;;;;1.50;0.60;;;;;;;-128.00;-1.00;-1.00;18466;287;7504998;-35
2023/08/11 13:34:59;;;;;;;0.90;0.70;;;;;;;-128.00;-1.00;-1.00;18467;294;7504982;-35
2023/08/11 13:37:25;;;;;;;0.90;0.50;;;;;;;-128.00;-1.00;-1.00;18856;295;7505195;-36
2023/08/11 13:39:51;;;;;;;6.00;0.80;;;;;;;-128.00;-1.00;-1.00;18870;295;7504367;-36
2023/08/11 13:42:17;;;;;;;0.80;0.40;;;;;;;-128.00;-1.00;-1.00;18875;318;7504545;-32
2023/08/11 13:44:43;;;;;;;0.50;0.40;;;;;;;-128.00;-1.00;-1.00;18901;294;7505334;-36
2023/08/11 13:47:10;;;;;;;6.10;1.00;;;;;;;-128.00;-1.00;-1.00;18894;294;7504437;-36
2023/08/11 13:49:36;;;;;;;0.90;0.50;;;;;;;-128.00;-1.00;-1.00;18474;294;7504660;-32